createdAt,value
2019-03-01T00:00:18.563Z,45.51
2019-03-01T00:01:18.372Z,45.51
2019-03-01T00:02:18.350Z,45.31
2019-03-01T00:03:18.344Z,45.31
2019-03-01T00:04:18.327Z,45.31
2019-03-01T00:05:18.471Z,45.31
2019-03-01T00:06:18.312Z,45.40
2019-03-01T00:07:18.302Z,45.29
2019-03-01T00:08:18.501Z,45.29
2019-03-01T00:09:18.285Z,45.51
2019-03-01T00:10:18.373Z,45.31
2019-03-01T00:11:18.311Z,45.51
2019-03-01T00:12:18.612Z,45.61
2019-03-01T00:13:18.234Z,45.29
2019-03-01T00:14:18.361Z,45.51
2019-03-01T00:15:18.218Z,45.51
2019-03-01T00:16:18.252Z,45.61
2019-03-01T00:17:25.504Z,45.31
2019-03-01T00:18:18.272Z,45.31
2019-03-01T00:19:18.167Z,45.90
2019-03-01T00:20:18.152Z,45.51
2019-03-01T00:21:18.153Z,45.21
2019-03-01T00:22:18.207Z,45.31
2019-03-01T00:23:18.252Z,45.21
2019-03-01T00:24:18.131Z,45.31
2019-03-01T00:25:18.104Z,45.90
2019-03-01T00:26:18.087Z,45.51
2019-03-01T00:27:18.095Z,45.51
2019-03-01T00:28:18.136Z,45.89
2019-03-01T00:29:18.154Z,45.61
2019-03-01T00:30:18.040Z,45.40
2019-03-01T00:31:18.043Z,45.71
2019-03-01T00:32:18.023Z,45.21
2019-03-01T00:33:18.100Z,45.61
2019-03-01T00:34:18.047Z,45.51
2019-03-01T00:35:18.142Z,45.31
2019-03-01T00:36:17.992Z,45.31
2019-03-01T00:37:18.305Z,45.90
2019-03-01T00:38:17.962Z,45.31
2019-03-01T00:39:17.962Z,45.90
2019-03-01T00:40:17.946Z,45.90
2019-03-01T00:41:17.965Z,45.61
2019-03-01T00:42:17.912Z,45.31
2019-03-01T00:43:17.932Z,45.90
2019-03-01T00:44:17.889Z,45.90
2019-03-01T00:45:17.952Z,45.51
2019-03-01T00:46:17.906Z,45.71
2019-03-01T00:47:17.919Z,45.71
2019-03-01T00:48:17.984Z,45.51
2019-03-01T00:49:17.841Z,45.71
2019-03-01T00:50:18.011Z,45.71
2019-03-01T00:51:18.093Z,45.81
2019-03-01T00:52:17.802Z,45.68
2019-03-01T00:53:17.829Z,45.71
2019-03-01T00:54:17.775Z,45.71
2019-03-01T00:55:17.767Z,45.51
2019-03-01T00:56:17.758Z,45.81
2019-03-01T00:57:17.833Z,45.81
2019-03-01T00:58:17.902Z,45.81
2019-03-01T00:59:17.856Z,45.81
2019-03-01T01:00:17.883Z,45.71
2019-03-01T01:01:17.804Z,45.71
2019-03-01T01:02:17.692Z,45.61
2019-03-01T01:03:17.691Z,45.51
2019-03-01T01:04:17.671Z,45.81
2019-03-01T01:05:17.934Z,45.81
2019-03-01T01:06:17.664Z,45.71
2019-03-01T01:07:18.029Z,45.61
2019-03-01T01:08:17.637Z,45.71
2019-03-01T01:09:17.614Z,45.71
2019-03-01T01:10:17.611Z,45.71
2019-03-01T01:11:17.837Z,45.81
2019-03-01T01:12:17.642Z,45.78
2019-03-01T01:13:17.621Z,45.81
2019-03-01T01:14:17.586Z,45.61
2019-03-01T01:15:17.605Z,45.81
2019-03-01T01:16:17.543Z,45.61
2019-03-01T01:17:25.020Z,45.61
2019-03-01T01:18:17.582Z,45.61
2019-03-01T01:19:17.510Z,45.71
2019-03-01T01:20:17.490Z,45.81
2019-03-01T01:21:17.586Z,45.81
2019-03-01T01:22:17.533Z,45.81
2019-03-01T01:23:17.629Z,45.61
2019-03-01T01:24:18.770Z,45.61
2019-03-01T01:25:17.441Z,45.81
2019-03-01T01:26:17.434Z,45.61
2019-03-01T01:27:17.543Z,45.61
2019-03-01T01:28:17.411Z,45.81
2019-03-01T01:29:17.537Z,45.61
2019-03-01T01:30:17.470Z,45.61
2019-03-01T01:31:17.724Z,45.61
2019-03-01T01:32:17.369Z,45.81
2019-03-01T01:33:17.353Z,45.81
2019-03-01T01:34:17.391Z,45.71
2019-03-01T01:35:17.382Z,45.81
2019-03-01T01:36:17.413Z,45.71
2019-03-01T01:37:17.332Z,45.61
2019-03-01T01:38:18.131Z,45.61
2019-03-01T01:39:17.285Z,45.40
2019-03-01T01:40:17.285Z,45.61
2019-03-01T01:41:24.580Z,45.61
2019-03-01T01:42:17.259Z,45.61
2019-03-01T01:43:17.250Z,45.81
2019-03-01T01:44:17.226Z,45.71
2019-03-01T01:45:17.539Z,45.61
2019-03-01T01:46:17.239Z,45.61
2019-03-01T01:47:17.318Z,45.61
2019-03-01T01:48:17.184Z,45.71
2019-03-01T01:49:17.184Z,45.61
2019-03-01T01:50:17.167Z,45.59
2019-03-01T01:51:17.234Z,45.61
2019-03-01T01:52:17.258Z,45.81
2019-03-01T01:53:17.310Z,45.61
2019-03-01T01:54:17.206Z,45.61
2019-03-01T01:55:17.199Z,45.61
2019-03-01T01:56:17.131Z,45.61
2019-03-01T01:57:17.209Z,45.61
2019-03-01T01:58:17.410Z,45.61
2019-03-01T01:59:17.405Z,45.40
2019-03-01T02:00:17.071Z,45.81
2019-03-01T02:01:17.078Z,45.61
2019-03-01T02:02:17.048Z,45.61
2019-03-01T02:03:17.024Z,45.61
2019-03-01T02:04:17.013Z,45.61
2019-03-01T02:05:17.060Z,45.40
2019-03-01T02:06:16.999Z,45.61
2019-03-01T02:07:16.977Z,45.51
2019-03-01T02:08:16.961Z,45.40
2019-03-01T02:09:17.108Z,45.31
2019-03-01T02:10:17.108Z,45.40
2019-03-01T02:11:17.000Z,45.61
2019-03-01T02:12:16.924Z,45.61
2019-03-01T02:13:17.220Z,45.40
2019-03-01T02:14:16.993Z,45.31
2019-03-01T02:15:16.887Z,45.31
2019-03-01T02:16:16.885Z,45.61
2019-03-01T02:17:17.036Z,45.61
2019-03-01T02:18:17.008Z,45.51
2019-03-01T02:19:16.854Z,45.61
2019-03-01T02:20:16.876Z,45.81
2019-03-01T02:21:24.470Z,45.31
2019-03-01T02:22:16.814Z,45.61
2019-03-01T02:23:16.938Z,45.51
2019-03-01T02:24:16.876Z,45.61
2019-03-01T02:25:16.788Z,45.31
2019-03-01T02:26:16.777Z,45.51
2019-03-01T02:27:16.830Z,45.40
2019-03-01T02:28:16.774Z,45.31
2019-03-01T02:29:16.763Z,45.51
2019-03-01T02:30:16.731Z,45.51
2019-03-01T02:31:16.760Z,45.61
2019-03-01T02:32:16.812Z,45.51
2019-03-01T02:33:16.694Z,45.61
2019-03-01T02:34:16.813Z,45.51
2019-03-01T02:35:16.726Z,45.71
2019-03-01T02:36:16.683Z,45.51
2019-03-01T02:37:16.657Z,45.61
2019-03-01T02:38:16.635Z,45.40
2019-03-01T02:39:16.698Z,45.51
2019-03-01T02:40:16.638Z,45.51
2019-03-01T02:41:16.739Z,45.61
2019-03-01T02:42:16.639Z,45.61
2019-03-01T02:43:16.585Z,45.51
2019-03-01T02:44:16.577Z,45.40
2019-03-01T02:45:16.576Z,45.31
2019-03-01T02:46:16.575Z,45.40
2019-03-01T02:47:16.688Z,45.61
2019-03-01T02:48:16.680Z,45.51
2019-03-01T02:49:16.522Z,45.61
2019-03-01T02:50:16.674Z,45.51
2019-03-01T02:51:16.525Z,45.31
2019-03-01T02:52:16.522Z,45.40
2019-03-01T02:53:16.528Z,45.40
2019-03-01T02:54:16.480Z,45.40
2019-03-01T02:55:16.451Z,45.31
2019-03-01T02:56:16.448Z,45.51
2019-03-01T02:57:16.477Z,45.61
2019-03-01T02:58:16.445Z,45.51
2019-03-01T02:59:16.464Z,45.40
2019-03-01T03:00:16.504Z,45.31
2019-03-01T03:01:16.389Z,45.40
2019-03-01T03:02:16.387Z,45.51
2019-03-01T03:03:16.476Z,45.40
2019-03-01T03:04:16.466Z,45.40
2019-03-01T03:05:16.826Z,45.40
2019-03-01T03:06:16.461Z,45.40
2019-03-01T03:07:16.393Z,45.40
2019-03-01T03:08:24.529Z,45.40
2019-03-01T03:09:16.456Z,45.51
2019-03-01T03:10:23.767Z,45.40
2019-03-01T03:11:25.113Z,45.40
2019-03-01T03:12:16.398Z,45.40
2019-03-01T03:13:16.519Z,45.40
2019-03-01T03:14:16.253Z,45.40
2019-03-01T03:15:24.667Z,45.40
2019-03-01T03:16:16.361Z,45.61
2019-03-01T03:17:16.251Z,45.51
2019-03-01T03:18:16.441Z,45.61
2019-03-01T03:19:16.196Z,45.71
2019-03-01T03:20:16.184Z,45.40
2019-03-01T03:21:16.168Z,45.40
2019-03-01T03:22:23.860Z,45.40
2019-03-01T03:24:31.919Z,45.61
2019-03-01T03:25:31.804Z,45.40
2019-03-01T03:26:31.979Z,45.51
2019-03-01T03:27:31.953Z,45.61
2019-03-01T03:28:31.763Z,45.51
2019-03-01T03:29:31.767Z,45.51
2019-03-01T03:30:31.821Z,45.51
2019-03-01T03:31:31.781Z,45.61
2019-03-01T03:32:31.813Z,45.61
2019-03-01T03:33:31.917Z,45.61
2019-03-01T03:34:31.704Z,45.51
2019-03-01T03:35:31.687Z,45.40
2019-03-01T03:36:31.750Z,45.51
2019-03-01T03:37:31.687Z,45.71
2019-03-01T03:38:31.854Z,45.40
2019-03-01T03:39:31.765Z,45.51
2019-03-01T03:40:31.653Z,45.51
2019-03-01T03:41:31.625Z,45.71
2019-03-01T03:42:31.613Z,45.51
2019-03-01T03:43:31.595Z,45.51
2019-03-01T03:44:31.682Z,45.51
2019-03-01T03:45:31.739Z,45.61
2019-03-01T03:46:31.573Z,45.71
2019-03-01T03:47:31.577Z,45.51
2019-03-01T03:48:31.553Z,45.61
2019-03-01T03:49:31.559Z,45.51
2019-03-01T03:50:31.538Z,45.40
2019-03-01T03:51:31.615Z,45.51
2019-03-01T03:52:32.101Z,45.61
2019-03-01T03:53:31.505Z,45.71
2019-03-01T03:54:31.602Z,45.01
2019-03-01T03:55:31.461Z,45.01
2019-03-01T03:56:31.475Z,45.61
2019-03-01T03:57:39.225Z,45.21
2019-03-01T03:58:32.348Z,45.01
2019-03-01T03:59:31.430Z,45.01
2019-03-01T04:00:31.410Z,45.10
2019-03-01T04:01:31.751Z,45.51
2019-03-01T04:02:31.416Z,45.51
2019-03-01T04:03:31.414Z,45.51
2019-03-01T04:04:31.473Z,45.21
2019-03-01T04:05:31.421Z,45.51
2019-03-01T04:06:31.352Z,45.71
2019-03-01T04:07:31.461Z,45.51
2019-03-01T04:08:31.329Z,45.51
2019-03-01T04:09:31.425Z,45.01
2019-03-01T04:10:31.300Z,45.40
2019-03-01T04:11:31.295Z,45.71
2019-03-01T04:12:31.414Z,45.71
2019-03-01T04:13:31.379Z,45.51
2019-03-01T04:14:31.413Z,45.51
2019-03-01T04:15:31.425Z,45.51
2019-03-01T04:16:31.246Z,45.10
2019-03-01T04:17:31.250Z,45.71
2019-03-01T04:18:31.228Z,45.71
2019-03-01T04:19:39.165Z,45.01
2019-03-01T04:20:31.237Z,45.01
2019-03-01T04:21:31.542Z,45.71
2019-03-01T04:22:31.175Z,45.21
2019-03-01T04:23:31.167Z,45.51
2019-03-01T04:24:31.195Z,45.01
2019-03-01T04:25:31.145Z,45.21
2019-03-01T04:26:31.210Z,45.01
2019-03-01T04:27:31.317Z,45.01
2019-03-01T04:28:31.696Z,45.10
2019-03-01T04:29:31.100Z,45.71
2019-03-01T04:30:31.370Z,45.51
2019-03-01T04:31:31.080Z,45.21
2019-03-01T04:32:31.067Z,45.21
2019-03-01T04:33:31.330Z,44.91
2019-03-01T04:34:31.038Z,45.21
2019-03-01T04:35:31.023Z,45.01
2019-03-01T04:36:31.266Z,45.21
2019-03-01T04:37:31.163Z,45.21
2019-03-01T04:38:31.020Z,45.10
2019-03-01T04:39:31.120Z,45.01
2019-03-01T04:40:30.965Z,45.10
2019-03-01T04:41:30.962Z,45.01
2019-03-01T04:42:31.030Z,45.51
2019-03-01T04:43:30.940Z,45.01
2019-03-01T04:44:31.000Z,45.51
2019-03-01T04:45:31.166Z,45.01
2019-03-01T04:46:31.012Z,45.01
2019-03-01T04:47:30.972Z,45.01
2019-03-01T04:48:30.918Z,45.21
2019-03-01T04:49:30.909Z,45.01
2019-03-01T04:50:30.854Z,45.71
2019-03-01T04:51:39.725Z,45.10
2019-03-01T04:52:31.830Z,45.01
2019-03-01T04:53:30.940Z,45.01
2019-03-01T04:54:30.825Z,45.10
2019-03-01T04:55:30.812Z,45.21
2019-03-01T04:56:30.816Z,45.01
2019-03-01T04:57:30.861Z,45.01
2019-03-01T04:58:30.838Z,45.21
2019-03-01T04:59:30.935Z,45.40
2019-03-01T05:00:30.771Z,45.01
2019-03-01T05:01:30.748Z,45.01
2019-03-01T05:02:30.741Z,45.01
2019-03-01T05:03:38.559Z,45.31
2019-03-01T05:04:30.847Z,45.10
2019-03-01T05:05:30.787Z,45.01
2019-03-01T05:06:30.684Z,45.10
2019-03-01T05:07:30.680Z,45.10
2019-03-01T05:08:30.659Z,45.10
2019-03-01T05:09:31.176Z,45.10
2019-03-01T05:10:30.689Z,45.21
2019-03-01T05:11:30.922Z,45.10
2019-03-01T05:12:30.616Z,45.31
2019-03-01T05:13:38.897Z,44.91
2019-03-01T05:14:30.642Z,45.01
2019-03-01T05:15:31.073Z,45.31
2019-03-01T05:16:30.589Z,45.10
2019-03-01T05:17:30.565Z,44.91
2019-03-01T05:18:30.569Z,45.01
2019-03-01T05:19:38.887Z,45.40
2019-03-01T05:20:31.209Z,45.21
2019-03-01T05:21:30.572Z,45.10
2019-03-01T05:22:30.516Z,45.10
2019-03-01T05:23:30.668Z,45.40
2019-03-01T05:24:30.481Z,45.40
2019-03-01T05:25:30.472Z,45.21
2019-03-01T05:26:30.489Z,45.21
2019-03-01T05:27:30.812Z,45.40
2019-03-01T05:28:30.447Z,45.40
2019-03-01T05:29:30.439Z,45.01
2019-03-01T05:30:30.518Z,45.40
2019-03-01T05:31:38.950Z,45.21
2019-03-01T05:32:30.527Z,45.40
2019-03-01T05:33:30.444Z,45.51
2019-03-01T05:34:30.376Z,45.21
2019-03-01T05:35:30.373Z,45.61
2019-03-01T05:36:30.400Z,45.21
2019-03-01T05:37:30.351Z,45.31
2019-03-01T05:38:30.368Z,45.21
2019-03-01T05:39:31.058Z,45.61
2019-03-01T05:40:30.316Z,45.51
2019-03-01T05:41:30.317Z,45.40
2019-03-01T05:42:30.416Z,45.81
2019-03-01T05:43:30.280Z,45.81
2019-03-01T05:44:30.685Z,45.40
2019-03-01T05:45:30.466Z,45.61
2019-03-01T05:46:30.240Z,45.81
2019-03-01T05:47:30.726Z,45.31
2019-03-01T05:48:30.231Z,45.90
2019-03-01T05:49:30.251Z,45.71
2019-03-01T05:50:30.239Z,45.81
2019-03-01T05:51:30.239Z,45.51
2019-03-01T05:52:30.186Z,45.51
2019-03-01T05:53:30.260Z,44.91
2019-03-01T05:54:30.252Z,44.81
2019-03-01T05:55:30.404Z,44.91
2019-03-01T05:56:30.250Z,45.61
2019-03-01T05:57:32.115Z,45.40
2019-03-01T05:58:30.138Z,44.91
2019-03-01T05:59:30.331Z,45.61
2019-03-01T06:00:30.100Z,45.40
2019-03-01T06:01:30.915Z,45.59
2019-03-01T06:02:30.178Z,45.40
2019-03-01T06:03:38.003Z,45.21
2019-03-01T06:04:30.063Z,44.91
2019-03-01T06:05:30.181Z,45.31
2019-03-01T06:06:30.019Z,45.40
2019-03-01T06:07:30.123Z,45.31
2019-03-01T06:08:30.009Z,45.10
2019-03-01T06:09:31.366Z,45.40
2019-03-01T06:10:31.018Z,45.01
2019-03-01T06:11:29.974Z,44.89
2019-03-01T06:12:29.955Z,44.71
2019-03-01T06:13:29.959Z,45.40
2019-03-01T06:14:30.907Z,45.29
2019-03-01T06:15:30.300Z,45.21
2019-03-01T06:16:29.908Z,45.40
2019-03-01T06:17:30.143Z,45.39
2019-03-01T06:18:29.987Z,45.61
2019-03-01T06:19:29.898Z,44.99
2019-03-01T06:20:29.880Z,45.18
2019-03-01T06:21:32.140Z,45.21
2019-03-01T06:22:29.855Z,45.21
2019-03-01T06:23:29.832Z,45.18
2019-03-01T06:24:29.948Z,44.99
2019-03-01T06:25:29.821Z,44.99
2019-03-01T06:26:29.799Z,45.09
2019-03-01T06:27:29.863Z,44.99
2019-03-01T06:28:29.789Z,44.99
2019-03-01T06:29:29.778Z,44.99
2019-03-01T06:30:29.786Z,44.89
2019-03-01T06:31:30.566Z,44.89
2019-03-01T06:32:31.316Z,45.18
2019-03-01T06:33:31.090Z,45.10
2019-03-01T06:34:29.721Z,45.40
2019-03-01T06:35:30.949Z,45.18
2019-03-01T06:36:31.142Z,45.18
2019-03-01T06:37:29.709Z,45.18
2019-03-01T06:38:29.672Z,45.18
2019-03-01T06:39:29.908Z,45.39
2019-03-01T06:40:29.771Z,44.99
2019-03-01T06:41:29.796Z,45.18
2019-03-01T06:42:30.633Z,45.21
2019-03-01T06:43:30.400Z,45.10
2019-03-01T06:44:29.622Z,45.18
2019-03-01T06:45:32.963Z,45.21
2019-03-01T06:46:30.810Z,44.89
2019-03-01T06:47:30.590Z,45.01
2019-03-01T06:48:29.559Z,45.09
2019-03-01T06:49:29.552Z,44.99
2019-03-01T06:50:30.566Z,45.09
2019-03-01T06:51:31.606Z,44.69
2019-03-01T06:52:32.824Z,44.49
2019-03-01T06:53:31.418Z,44.69
2019-03-01T06:54:29.677Z,45.59
2019-03-01T06:55:31.565Z,45.29
2019-03-01T06:56:36.468Z,45.47
2019-03-01T06:57:31.675Z,44.96
2019-03-01T06:58:29.789Z,45.17
2019-03-01T06:59:29.547Z,45.36
2019-03-01T07:00:29.664Z,46.06
2019-03-01T07:01:30.138Z,44.96
2019-03-01T07:02:29.877Z,44.17
2019-03-01T07:03:29.518Z,44.46
2019-03-01T07:04:29.463Z,43.37
2019-03-01T07:05:29.901Z,44.29
2019-03-01T07:06:29.378Z,43.99
2019-03-01T07:07:31.203Z,43.69
2019-03-01T07:08:31.492Z,43.27
2019-03-01T07:09:30.010Z,43.77
2019-03-01T07:10:29.320Z,43.37
2019-03-01T07:11:30.292Z,43.67
2019-03-01T07:12:29.299Z,43.69
2019-03-01T07:13:30.598Z,37.90
2019-03-01T07:14:29.291Z,35.72
2019-03-01T07:15:29.278Z,35.54
2019-03-01T07:16:29.254Z,35.14
2019-03-01T07:17:29.240Z,33.35
2019-03-01T07:18:30.065Z,33.06
2019-03-01T07:19:30.220Z,33.56
2019-03-01T07:20:29.204Z,32.08
2019-03-01T07:21:29.205Z,31.18
2019-03-01T07:22:29.256Z,32.28
2019-03-01T07:23:36.548Z,31.18
2019-03-01T07:24:30.656Z,31.08
2019-03-01T07:25:37.435Z,29.99
2019-03-01T07:26:29.268Z,30.29
2019-03-01T07:27:29.126Z,30.11
2019-03-01T07:28:29.128Z,30.51
2019-03-01T07:29:29.464Z,30.12
2019-03-01T07:31:30.092Z,30.22
2019-03-01T07:32:29.107Z,29.93
2019-03-01T07:33:29.191Z,29.93
2019-03-01T07:34:29.308Z,29.94
2019-03-01T07:35:29.799Z,29.34
2019-03-01T07:36:29.098Z,30.35
2019-03-01T07:37:29.440Z,29.45
2019-03-01T07:38:29.022Z,30.05
2019-03-01T07:39:29.118Z,30.24
2019-03-01T07:40:28.992Z,31.52
2019-03-01T07:41:28.991Z,33.62
2019-03-01T07:42:29.412Z,33.71
2019-03-01T07:43:29.534Z,34.11
2019-03-01T07:44:29.079Z,35.61
2019-03-01T07:45:29.192Z,35.89
2019-03-01T07:46:29.506Z,37.99
2019-03-01T07:47:34.124Z,38.07
2019-03-01T07:48:38.494Z,38.38
2019-03-01T07:49:29.142Z,37.88
2019-03-01T07:50:32.511Z,38.36
2019-03-01T07:51:31.663Z,37.96
2019-03-01T07:52:31.067Z,38.04
2019-03-01T07:53:30.375Z,38.14
2019-03-01T07:54:36.284Z,38.92
2019-03-01T07:55:35.325Z,39.62
2019-03-01T07:56:29.218Z,39.32
2019-03-01T07:57:31.700Z,39.62
2019-03-01T07:58:29.258Z,39.32
2019-03-01T07:59:38.077Z,39.52
2019-03-01T08:00:29.587Z,39.52
2019-03-01T08:01:29.949Z,39.82
2019-03-01T08:02:39.728Z,39.22
2019-03-01T08:03:29.991Z,39.82
2019-03-01T08:04:29.621Z,39.90
2019-03-01T08:05:31.557Z,39.92
2019-03-01T08:06:38.906Z,39.90
2019-03-01T08:07:32.117Z,39.80
2019-03-01T08:08:28.765Z,40.10
2019-03-01T08:09:28.979Z,39.72
2019-03-01T08:10:29.146Z,40.20
2019-03-01T08:11:31.813Z,40.30
2019-03-01T08:12:38.620Z,40.40
2019-03-01T08:13:30.961Z,40.50
2019-03-01T08:14:31.650Z,40.50
2019-03-01T08:15:32.461Z,39.90
2019-03-01T08:16:28.687Z,40.00
2019-03-01T08:17:31.548Z,40.38
2019-03-01T08:18:29.975Z,40.68
2019-03-01T08:19:28.899Z,40.78
2019-03-01T08:20:30.425Z,40.40
2019-03-01T08:21:28.921Z,40.78
2019-03-01T08:22:28.927Z,40.98
2019-03-01T08:23:31.710Z,40.58
2019-03-01T08:24:29.932Z,40.50
2019-03-01T08:25:30.946Z,40.48
2019-03-01T08:26:30.773Z,40.48
2019-03-01T08:27:29.748Z,40.88
2019-03-01T08:28:28.486Z,40.28
2019-03-01T08:29:30.704Z,40.28
2019-03-01T08:30:28.930Z,40.18
2019-03-01T08:31:28.934Z,41.28
2019-03-01T08:32:30.679Z,40.98
2019-03-01T08:33:28.694Z,40.88
2019-03-01T08:34:28.586Z,41.17
2019-03-01T08:35:32.073Z,40.88
2019-03-01T08:36:30.241Z,41.28
2019-03-01T08:37:28.370Z,40.98
2019-03-01T08:38:29.748Z,40.56
2019-03-01T08:39:28.676Z,40.56
2019-03-01T08:40:28.467Z,40.56
2019-03-01T08:41:28.342Z,41.25
2019-03-01T08:42:32.632Z,40.56
2019-03-01T08:43:29.846Z,41.75
2019-03-01T08:44:29.291Z,42.15
2019-03-01T08:45:29.858Z,41.66
2019-03-01T08:46:29.537Z,41.75
2019-03-01T08:47:29.831Z,41.66
2019-03-01T08:48:30.606Z,41.66
2019-03-01T08:49:32.162Z,41.66
2019-03-01T08:50:29.156Z,42.05
2019-03-01T08:51:28.355Z,42.15
2019-03-01T08:52:28.495Z,42.05
2019-03-01T08:53:29.234Z,42.15
2019-03-01T08:54:38.776Z,42.35
2019-03-01T08:55:29.171Z,42.05
2019-03-01T08:56:29.317Z,41.96
2019-03-01T08:57:28.859Z,41.36
2019-03-01T08:58:28.141Z,41.75
2019-03-01T08:59:30.448Z,40.26
2019-03-01T09:00:32.298Z,40.76
2019-03-01T09:01:28.106Z,41.16
2019-03-01T09:02:28.093Z,40.98
2019-03-01T09:03:28.164Z,40.76
2019-03-01T09:04:28.101Z,41.25
2019-03-01T09:05:28.057Z,40.95
2019-03-01T09:06:28.070Z,41.25
2019-03-01T09:07:30.232Z,41.36
2019-03-01T09:08:29.026Z,40.95
2019-03-01T09:09:28.190Z,40.95
2019-03-01T09:10:32.423Z,41.36
2019-03-01T09:11:30.578Z,40.95
2019-03-01T09:12:29.002Z,41.25
2019-03-01T09:13:28.335Z,41.16
2019-03-01T09:14:27.965Z,41.25
2019-03-01T09:15:27.949Z,41.06
2019-03-01T09:16:28.702Z,41.06
2019-03-01T09:17:29.004Z,41.06
2019-03-01T09:18:29.735Z,41.25
2019-03-01T09:19:28.088Z,41.16
2019-03-01T09:20:38.408Z,41.25
2019-03-01T09:21:29.026Z,41.06
2019-03-01T09:22:28.115Z,40.76
2019-03-01T09:23:28.034Z,41.16
2019-03-01T09:24:29.254Z,40.76
2019-03-01T09:25:27.839Z,41.16
2019-03-01T09:26:27.826Z,40.56
2019-03-01T09:27:30.155Z,41.06
2019-03-01T09:28:27.802Z,41.46
2019-03-01T09:29:27.806Z,40.76
2019-03-01T09:30:30.509Z,40.76
2019-03-01T09:31:27.804Z,40.76
2019-03-01T09:32:30.422Z,40.74
2019-03-01T09:33:28.753Z,40.74
2019-03-01T09:34:28.621Z,40.86
2019-03-01T09:35:29.696Z,40.84
2019-03-01T09:36:27.767Z,40.76
2019-03-01T09:37:29.722Z,40.84
2019-03-01T09:38:32.843Z,40.74
2019-03-01T09:39:28.335Z,40.76
2019-03-01T09:40:29.690Z,40.84
2019-03-01T09:41:28.781Z,40.94
2019-03-01T09:42:27.874Z,40.86
2019-03-01T09:43:28.541Z,40.95
2019-03-01T09:44:28.521Z,40.86
2019-03-01T09:45:35.776Z,40.95
2019-03-01T09:46:32.370Z,41.25
2019-03-01T09:47:28.787Z,41.14
2019-03-01T09:48:28.852Z,40.66
2019-03-01T09:49:28.617Z,40.66
2019-03-01T09:50:27.570Z,40.76
2019-03-01T09:51:28.230Z,40.66
2019-03-01T09:52:28.615Z,40.74
2019-03-01T09:53:30.516Z,40.76
2019-03-01T09:54:28.553Z,40.64
2019-03-01T09:55:29.164Z,41.25
2019-03-01T09:56:27.707Z,41.36
2019-03-01T09:57:27.626Z,41.36
2019-03-01T09:58:27.493Z,41.24
2019-03-01T09:59:27.811Z,41.16
2019-03-01T10:00:27.883Z,41.46
2019-03-01T10:01:27.991Z,41.36
2019-03-01T10:02:27.432Z,41.44
2019-03-01T10:03:27.415Z,41.25
2019-03-01T10:04:27.409Z,41.33
2019-03-01T10:05:27.425Z,41.66
2019-03-01T10:06:27.390Z,41.74
2019-03-01T10:07:27.371Z,41.74
2019-03-01T10:08:30.921Z,41.75
2019-03-01T10:09:27.509Z,41.74
2019-03-01T10:10:27.339Z,41.83
2019-03-01T10:11:42.152Z,41.53
2019-03-01T10:12:28.316Z,41.96
2019-03-01T10:13:27.300Z,41.93
2019-03-01T10:14:27.316Z,41.55
2019-03-01T10:15:27.292Z,41.85
2019-03-01T10:16:27.302Z,41.33
2019-03-01T10:17:27.289Z,41.96
2019-03-01T10:18:28.025Z,41.53
2019-03-01T10:19:27.625Z,41.83
2019-03-01T10:20:27.226Z,41.93
2019-03-01T10:21:31.963Z,41.85
2019-03-01T10:22:27.204Z,41.83
2019-03-01T10:23:27.235Z,41.93
2019-03-01T10:24:27.294Z,41.83
2019-03-01T10:25:27.168Z,41.46
2019-03-01T10:26:27.162Z,41.16
2019-03-01T10:27:27.148Z,41.53
2019-03-01T10:28:27.185Z,41.36
2019-03-01T10:29:27.496Z,41.53
2019-03-01T10:30:27.111Z,41.46
2019-03-01T10:31:27.148Z,41.53
2019-03-01T10:32:27.141Z,41.44
2019-03-01T10:33:27.092Z,41.53
2019-03-01T10:34:27.237Z,41.44
2019-03-01T10:35:27.086Z,41.63
2019-03-01T10:36:27.165Z,41.33
2019-03-01T10:37:27.041Z,41.44
2019-03-01T10:38:27.817Z,41.36
2019-03-01T10:39:27.032Z,41.44
2019-03-01T10:40:27.245Z,41.55
2019-03-01T10:41:27.179Z,41.44
2019-03-01T10:42:26.986Z,41.44
2019-03-01T10:43:27.104Z,41.53
2019-03-01T10:44:28.132Z,41.53
2019-03-01T10:45:27.231Z,41.46
2019-03-01T10:46:26.980Z,41.63
2019-03-01T10:47:27.016Z,41.44
2019-03-01T10:48:27.890Z,41.83
2019-03-01T10:49:26.987Z,41.44
2019-03-01T10:50:26.907Z,42.15
2019-03-01T10:51:28.737Z,41.63
2019-03-01T10:52:26.871Z,41.63
2019-03-01T10:53:27.362Z,41.63
2019-03-01T10:54:29.038Z,42.23
2019-03-01T10:55:26.854Z,42.43
2019-03-01T10:56:29.444Z,41.44
2019-03-01T10:57:26.830Z,41.55
2019-03-01T10:58:26.807Z,41.46
2019-03-01T10:59:26.872Z,41.33
2019-03-01T11:00:26.923Z,41.83
2019-03-01T11:01:26.778Z,41.44
2019-03-01T11:02:26.903Z,41.44
2019-03-01T11:03:27.662Z,41.44
2019-03-01T11:04:26.742Z,41.63
2019-03-01T11:05:26.929Z,41.44
2019-03-01T11:06:27.063Z,42.03
2019-03-01T11:07:26.729Z,41.63
2019-03-01T11:08:26.698Z,41.83
2019-03-01T11:09:26.687Z,41.63
2019-03-01T11:10:27.504Z,41.82
2019-03-01T11:11:36.657Z,41.83
2019-03-01T11:12:28.834Z,41.93
2019-03-01T11:13:26.641Z,41.83
2019-03-01T11:14:26.899Z,41.83
2019-03-01T11:15:26.618Z,42.03
2019-03-01T11:16:28.499Z,41.83
2019-03-01T11:17:27.335Z,42.03
2019-03-01T11:18:27.451Z,41.83
2019-03-01T11:19:26.639Z,42.43
2019-03-01T11:20:26.706Z,41.93
2019-03-01T11:21:26.574Z,42.11
2019-03-01T11:22:26.588Z,41.83
2019-03-01T11:23:27.163Z,41.82
2019-03-01T11:24:26.522Z,41.93
2019-03-01T11:25:26.538Z,42.21
2019-03-01T11:26:27.500Z,41.91
2019-03-01T11:27:26.635Z,41.93
2019-03-01T11:28:26.806Z,41.74
2019-03-01T11:29:28.201Z,42.01
2019-03-01T11:30:26.611Z,41.91
2019-03-01T11:31:26.469Z,41.83
2019-03-01T11:32:26.441Z,41.61
2019-03-01T11:33:27.356Z,42.11
2019-03-01T11:34:26.418Z,41.82
2019-03-01T11:35:28.042Z,41.93
2019-03-01T11:36:26.383Z,41.91
2019-03-01T11:37:28.704Z,41.74
2019-03-01T11:38:27.105Z,42.13
2019-03-01T11:39:27.413Z,42.11
2019-03-01T11:40:26.418Z,42.11
2019-03-01T11:41:26.409Z,42.01
2019-03-01T11:42:26.424Z,42.11
2019-03-01T11:43:26.453Z,41.82
2019-03-01T11:44:26.308Z,42.01
2019-03-01T11:45:26.351Z,42.01
2019-03-01T11:46:26.282Z,42.03
2019-03-01T11:47:26.426Z,41.82
2019-03-01T11:48:26.262Z,42.03
2019-03-01T11:49:26.538Z,42.61
2019-03-01T11:50:26.462Z,42.61
2019-03-01T11:51:27.783Z,41.91
2019-03-01T11:52:26.610Z,42.21
2019-03-01T11:53:29.087Z,41.14
2019-03-01T11:54:28.951Z,41.61
2019-03-01T11:55:26.209Z,42.31
2019-03-01T11:56:26.497Z,42.11
2019-03-01T11:57:26.325Z,42.51
2019-03-01T11:58:26.884Z,42.31
2019-03-01T11:59:27.325Z,42.21
2019-03-01T12:00:26.129Z,42.01
2019-03-01T12:01:26.207Z,42.21
2019-03-01T12:02:26.101Z,42.11
2019-03-01T12:03:26.291Z,41.71
2019-03-01T12:04:26.380Z,42.41
2019-03-01T12:05:27.767Z,42.41
2019-03-01T12:06:26.067Z,42.21
2019-03-01T12:07:26.116Z,42.51
2019-03-01T12:08:26.185Z,42.11
2019-03-01T12:09:26.491Z,41.91
2019-03-01T12:10:26.077Z,42.11
2019-03-01T12:11:26.627Z,42.21
2019-03-01T12:12:26.490Z,42.21
2019-03-01T12:13:25.988Z,41.91
2019-03-01T12:14:27.651Z,41.91
2019-03-01T12:15:26.572Z,42.41
2019-03-01T12:16:26.168Z,42.21
2019-03-01T12:17:25.972Z,42.11
2019-03-01T12:18:25.947Z,42.11
2019-03-01T12:19:25.908Z,42.01
2019-03-01T12:20:26.015Z,42.21
2019-03-01T12:21:26.122Z,42.81
2019-03-01T12:22:25.887Z,42.61
2019-03-01T12:23:25.939Z,42.31
2019-03-01T12:24:26.293Z,43.41
2019-03-01T12:25:25.851Z,42.11
2019-03-01T12:26:26.960Z,42.11
2019-03-01T12:27:25.837Z,42.31
2019-03-01T12:28:25.973Z,43.11
2019-03-01T12:29:26.017Z,43.21
2019-03-01T12:30:25.823Z,43.11
2019-03-01T12:31:25.783Z,43.30
2019-03-01T12:32:25.768Z,43.11
2019-03-01T12:33:25.756Z,43.11
2019-03-01T12:34:25.748Z,43.11
2019-03-01T12:35:26.806Z,42.11
2019-03-01T12:36:25.720Z,43.01
2019-03-01T12:37:25.712Z,42.71
2019-03-01T12:38:25.698Z,43.21
2019-03-01T12:39:25.686Z,42.91
2019-03-01T12:40:25.846Z,42.51
2019-03-01T12:41:25.751Z,42.61
2019-03-01T12:42:25.667Z,42.51
2019-03-01T12:43:25.647Z,42.51
2019-03-01T12:44:25.640Z,42.89
2019-03-01T12:45:26.430Z,42.31
2019-03-01T12:46:27.301Z,42.19
2019-03-01T12:47:25.680Z,43.49
2019-03-01T12:48:25.704Z,43.49
2019-03-01T12:49:26.125Z,42.91
2019-03-01T12:50:25.567Z,43.38
2019-03-01T12:51:26.755Z,43.51
2019-03-01T12:52:25.564Z,43.30
2019-03-01T12:53:25.831Z,43.21
2019-03-01T12:54:25.529Z,43.51